Time;durP1;ratioP1;P1;durP2;ratioP2;P2;SDS_P1;SDS_P2;PMS_P1;PMS_P2;Temp;Humidity;BMP_temperature;BMP_pressure;BME280_temperature;BME280_humidity;BME280_pressure;Samples;Min_cycle;Max_cycle;Signal;HPM_P1;HPM_P2
2022/09/15 00:00:19;;;;;;;2.27;2.07;;;21.30;99.90;;;;;;7377162;19;20368;-48
2022/09/15 00:02:48;;;;;;;4.27;2.03;;;21.20;99.90;;;;;;7370880;19;20375;-48
2022/09/15 00:05:18;;;;;;;3.23;2.10;;;21.10;99.90;;;;;;7380187;19;21101;-49
2022/09/15 00:07:49;;;;;;;2.23;1.80;;;21.10;99.90;;;;;;7373605;19;21417;-48
2022/09/15 00:10:20;;;;;;;1.83;1.70;;;20.90;99.90;;;;;;7376911;19;20368;-48
2022/09/15 00:12:52;;;;;;;2.30;1.87;;;21.00;99.90;;;;;;7370098;19;20414;-48
2022/09/15 00:15:22;;;;;;;2.17;1.43;;;21.10;99.90;;;;;;7369130;19;20906;-48
2022/09/15 00:17:53;;;;;;;4.50;1.93;;;21.10;99.90;;;;;;7376672;19;20375;-48
2022/09/15 00:20:24;;;;;;;5.20;2.73;;;21.10;99.90;;;;;;7375531;19;20409;-48
2022/09/15 00:22:55;;;;;;;3.70;1.80;;;21.00;99.90;;;;;;7378711;19;20369;-48
2022/09/15 00:25:25;;;;;;;3.43;2.00;;;20.90;99.90;;;;;;7374720;19;21388;-48
2022/09/15 00:27:57;;;;;;;4.93;2.10;;;20.90;99.90;;;;;;7375496;19;20726;-48
2022/09/15 00:30:29;;;;;;;6.33;2.03;;;21.00;99.90;;;;;;7367112;19;20383;-48
2022/09/15 00:32:58;;;;;;;2.53;1.90;;;21.00;99.90;;;;;;7375235;19;20975;-48
2022/09/15 00:35:28;;;;;;;2.10;1.87;;;20.90;99.90;;;;;;7376409;19;20368;-48
2022/09/15 00:37:57;;;;;;;5.10;2.13;;;20.90;99.90;;;;;;7375025;19;20388;-48
2022/09/15 00:40:27;;;;;;;1.87;1.57;;;20.90;99.90;;;;;;7379602;19;20456;-48
2022/09/15 00:42:59;;;;;;;1.57;1.47;;;21.00;99.90;;;;;;7381067;19;20927;-48
2022/09/15 00:45:29;;;;;;;2.37;1.33;;;21.10;99.90;;;;;;7379077;19;20914;-48
2022/09/15 00:47:58;;;;;;;1.53;1.07;;;21.20;99.90;;;;;;7379415;19;20368;-48
2022/09/15 00:50:28;;;;;;;1.53;1.13;;;21.20;99.90;;;;;;7387862;19;20379;-48
2022/09/15 00:53:02;;;;;;;1.40;1.23;;;21.20;99.90;;;;;;7385778;19;20401;-48
2022/09/15 00:55:36;;;;;;;2.73;1.30;;;21.20;99.90;;;;;;7385627;19;20368;-48
2022/09/15 00:58:13;;;;;;;2.67;1.30;;;21.20;99.90;;;;;;7384489;19;20463;-48
2022/09/15 01:00:50;;;;;;;2.00;1.20;;;21.20;99.90;;;;;;7380731;19;20410;-48
2022/09/15 01:03:20;;;;;;;1.90;1.20;;;21.30;99.90;;;;;;7377742;19;20372;-47
2022/09/15 01:05:55;;;;;;;2.27;1.37;;;21.30;99.90;;;;;;7384162;19;20372;-48
2022/09/15 01:08:30;;;;;;;1.20;0.90;;;21.20;99.90;;;;;;7380522;19;20965;-48
2022/09/15 01:11:01;;;;;;;5.23;1.33;;;21.20;99.90;;;;;;7384765;19;20761;-47
2022/09/15 01:13:33;;;;;;;1.97;1.33;;;21.10;99.90;;;;;;7386494;19;21022;-47
2022/09/15 01:16:11;;;;;;;1.00;0.90;;;20.90;99.90;;;;;;7379972;19;20388;-49
2022/09/15 01:18:48;;;;;;;3.33;1.40;;;20.90;99.90;;;;;;7380432;19;20372;-49
2022/09/15 01:21:35;;;;;;;1.93;1.50;;;21.00;99.90;;;;;;7379270;19;22581;-49
2022/09/15 01:24:52;;;;;;;1.63;1.50;;;21.00;99.90;;;;;;7381782;19;20453;-48
2022/09/15 01:28:03;;;;;;;1.70;1.13;;;20.90;99.90;;;;;;7382106;19;20449;-48
2022/09/15 01:30:37;;;;;;;1.10;1.00;;;20.90;99.90;;;;;;7383840;19;20424;-48
2022/09/15 01:33:26;;;;;;;2.43;1.20;;;21.00;99.90;;;;;;7380958;19;20869;-48
2022/09/15 01:36:04;;;;;;;1.57;1.40;;;21.10;99.90;;;;;;7384312;19;20395;-47
2022/09/15 01:38:50;;;;;;;3.73;1.70;;;21.10;99.90;;;;;;7379971;19;21012;-48
2022/09/15 01:41:29;;;;;;;2.00;1.27;;;21.00;99.90;;;;;;7382803;19;20813;-48
2022/09/15 01:44:04;;;;;;;2.20;1.30;;;21.00;99.90;;;;;;7381643;19;20722;-48
2022/09/15 01:46:39;;;;;;;1.50;1.40;;;20.90;99.90;;;;;;7380642;19;20384;-47
2022/09/15 01:49:13;;;;;;;1.63;1.30;;;20.80;99.90;;;;;;7381274;19;20376;-47
2022/09/15 01:51:45;;;;;;;2.20;1.20;;;20.70;99.90;;;;;;7380696;19;20376;-48
2022/09/15 01:54:17;;;;;;;1.87;1.33;;;20.70;99.90;;;;;;7377770;19;20432;-47
2022/09/15 01:56:46;;;;;;;4.27;1.60;;;20.60;99.90;;;;;;7376960;19;20384;-48
2022/09/15 01:59:16;;;;;;;3.10;1.47;;;20.50;99.90;;;;;;7387949;19;20392;-48
2022/09/15 02:01:56;;;;;;;3.00;1.40;;;20.50;99.90;;;;;;7382711;19;20432;-49
2022/09/15 02:04:31;;;;;;;2.17;1.20;;;20.40;99.90;;;;;;7380527;19;20388;-48
2022/09/15 02:07:10;;;;;;;1.10;1.00;;;20.40;99.90;;;;;;7370982;19;20737;-48
2022/09/15 02:09:45;;;;;;;2.40;1.20;;;20.40;99.90;;;;;;7366678;19;21192;-47
2022/09/15 02:12:21;;;;;;;2.90;1.33;;;20.40;99.90;;;;;;7375263;19;20774;-48
2022/09/15 02:15:01;;;;;;;1.53;1.30;;;20.50;99.90;;;;;;7377483;19;20372;-47
2022/09/15 02:17:37;;;;;;;3.47;1.10;;;20.50;99.90;;;;;;7378536;19;20375;-48
2022/09/15 02:20:14;;;;;;;2.13;1.23;;;20.30;99.90;;;;;;7377827;19;20704;-47
2022/09/15 02:22:49;;;;;;;1.83;0.90;;;20.40;99.90;;;;;;7372590;19;20372;-48
2022/09/15 02:25:23;;;;;;;6.10;2.07;;;20.50;99.90;;;;;;7377709;19;20371;-48
2022/09/15 02:27:56;;;;;;;3.27;1.30;;;20.40;99.90;;;;;;7371749;19;20387;-47
2022/09/15 02:30:31;;;;;;;1.20;1.10;;;20.50;99.90;;;;;;7373791;19;20416;-47
2022/09/15 02:33:07;;;;;;;3.47;1.37;;;20.40;99.90;;;;;;7368527;19;20384;-47
2022/09/15 02:35:40;;;;;;;1.60;0.97;;;20.40;99.90;;;;;;7377561;19;20790;-47
2022/09/15 02:38:11;;;;;;;1.73;1.13;;;20.50;99.90;;;;;;7371397;19;20365;-47
2022/09/15 02:40:43;;;;;;;3.47;1.30;;;20.50;99.90;;;;;;7379801;19;20886;-47
2022/09/15 02:43:14;;;;;;;0.87;0.80;;;20.50;99.90;;;;;;7369138;19;20468;-48
2022/09/15 02:45:44;;;;;;;1.87;1.20;;;20.50;99.90;;;;;;7374748;19;20407;-48
2022/09/15 02:48:16;;;;;;;3.13;1.33;;;20.50;99.90;;;;;;7378924;19;20750;-47
2022/09/15 02:50:48;;;;;;;2.10;1.20;;;20.60;99.90;;;;;;7375227;19;20403;-48
2022/09/15 02:53:17;;;;;;;2.80;1.27;;;20.60;99.90;;;;;;7375628;19;20843;-48
2022/09/15 02:55:47;;;;;;;5.37;1.40;;;20.50;99.90;;;;;;7376116;19;20875;-48
2022/09/15 02:58:16;;;;;;;2.83;1.00;;;20.50;99.90;;;;;;7374311;19;20397;-48
2022/09/15 03:00:46;;;;;;;2.17;1.20;;;20.50;99.90;;;;;;7368456;19;20440;-48
2022/09/15 03:03:20;;;;;;;1.60;1.20;;;20.50;99.90;;;;;;7372963;19;20461;-48
2022/09/15 03:05:50;;;;;;;1.47;1.20;;;20.50;99.90;;;;;;7376784;19;20367;-47
2022/09/15 03:08:19;;;;;;;3.27;1.10;;;20.50;99.90;;;;;;7370543;19;20394;-48
2022/09/15 03:10:49;;;;;;;2.70;1.23;;;20.50;99.90;;;;;;7377123;19;20959;-47
2022/09/15 03:13:18;;;;;;;2.20;1.00;;;20.50;99.90;;;;;;7375604;19;20409;-48
2022/09/15 03:15:48;;;;;;;1.90;1.00;;;20.30;99.90;;;;;;7377238;19;24635;-48
2022/09/15 03:18:20;;;;;;;1.53;0.97;;;20.20;99.90;;;;;;7372230;19;20945;-47
2022/09/15 03:20:49;;;;;;;1.23;1.10;;;20.20;99.90;;;;;;7374034;19;20408;-48
2022/09/15 03:23:19;;;;;;;1.47;1.00;;;20.10;99.90;;;;;;7369123;19;20770;-48
2022/09/15 03:25:48;;;;;;;2.97;1.40;;;20.00;99.90;;;;;;7373544;19;20425;-47
2022/09/15 03:28:17;;;;;;;2.23;1.33;;;20.10;99.90;;;;;;7378341;19;20372;-48
2022/09/15 03:30:47;;;;;;;1.77;1.27;;;20.00;99.90;;;;;;7376409;19;20872;-47
2022/09/15 03:33:20;;;;;;;1.50;1.10;;;20.10;99.90;;;;;;7375245;19;20517;-47
2022/09/15 03:35:50;;;;;;;3.90;1.30;;;20.20;99.90;;;;;;7379037;19;20372;-47
2022/09/15 03:38:22;;;;;;;2.00;0.97;;;20.30;99.90;;;;;;7377480;19;20364;-47
2022/09/15 03:41:02;;;;;;;2.97;1.23;;;20.30;99.90;;;;;;7378342;19;20365;-47
2022/09/15 03:43:33;;;;;;;1.53;1.30;;;20.20;99.90;;;;;;7378357;19;20820;-47
2022/09/15 03:46:03;;;;;;;2.43;0.97;;;20.10;99.90;;;;;;7375327;19;20368;-47
2022/09/15 03:48:39;;;;;;;1.00;0.90;;;20.20;99.90;;;;;;7380284;19;20405;-47
2022/09/15 03:51:10;;;;;;;1.83;1.00;;;20.20;99.90;;;;;;7377408;19;20935;-47
2022/09/15 03:53:43;;;;;;;2.63;1.20;;;20.00;99.90;;;;;;7373990;19;20911;-47
2022/09/15 03:56:20;;;;;;;1.57;1.20;;;19.90;99.90;;;;;;7373091;19;20938;-47
2022/09/15 03:58:50;;;;;;;1.60;1.17;;;19.80;99.90;;;;;;7375359;19;20387;-47
2022/09/15 04:01:19;;;;;;;2.37;1.20;;;19.90;99.90;;;;;;7374608;19;20424;-47
2022/09/15 04:03:52;;;;;;;1.90;1.13;;;19.90;99.90;;;;;;7377006;19;20486;-47
2022/09/15 04:06:24;;;;;;;5.90;1.43;;;19.80;99.90;;;;;;7374013;19;20379;-47
2022/09/15 04:08:58;;;;;;;1.10;0.90;;;19.90;99.90;;;;;;7369578;19;20380;-47
2022/09/15 04:11:28;;;;;;;2.20;1.00;;;19.70;99.90;;;;;;7378359;19;21066;-47
2022/09/15 04:13:58;;;;;;;1.80;1.13;;;19.60;99.90;;;;;;7379895;19;21625;-47
2022/09/15 04:16:29;;;;;;;1.07;0.97;;;19.60;99.90;;;;;;7382378;19;20368;-47
2022/09/15 04:19:01;;;;;;;7.70;0.90;;;19.60;99.90;;;;;;7386251;19;20471;-47
2022/09/15 04:21:30;;;;;;;1.50;1.07;;;19.70;99.90;;;;;;7382005;19;20372;-47
2022/09/15 04:24:00;;;;;;;1.67;1.00;;;19.80;99.90;;;;;;7385199;19;21008;-47
2022/09/15 04:26:31;;;;;;;2.10;1.10;;;19.80;99.90;;;;;;7384231;19;20388;-47
2022/09/15 04:29:04;;;;;;;1.57;1.17;;;19.70;99.90;;;;;;7385998;19;20376;-47
2022/09/15 04:31:34;;;;;;;4.10;1.30;;;19.60;99.90;;;;;;7385555;19;20372;-47
2022/09/15 04:34:06;;;;;;;1.00;0.90;;;19.70;99.90;;;;;;7385321;19;20401;-48
2022/09/15 04:36:36;;;;;;;3.40;1.17;;;19.80;99.90;;;;;;7379425;19;20389;-48
2022/09/15 04:39:07;;;;;;;2.37;1.00;;;19.80;99.90;;;;;;7384101;19;20367;-48
2022/09/15 04:41:36;;;;;;;2.50;1.30;;;19.70;99.90;;;;;;7382333;19;20413;-47
2022/09/15 04:44:05;;;;;;;1.23;1.00;;;19.70;99.90;;;;;;7383661;19;20376;-47
2022/09/15 04:46:35;;;;;;;1.00;0.90;;;19.70;99.90;;;;;;7381335;19;20479;-48
2022/09/15 04:49:07;;;;;;;1.47;1.00;;;19.80;99.90;;;;;;7389063;19;20384;-48
2022/09/15 04:51:36;;;;;;;2.87;1.20;;;19.80;99.90;;;;;;7379470;19;20360;-47
2022/09/15 04:54:06;;;;;;;1.53;0.90;;;19.90;99.90;;;;;;7381785;19;20383;-47
2022/09/15 04:56:36;;;;;;;1.43;0.90;;;19.90;99.90;;;;;;7383823;19;20356;-48
2022/09/15 04:59:14;;;;;;;3.33;1.90;;;19.80;99.90;;;;;;7372896;19;20451;-48
2022/09/15 05:01:44;;;;;;;1.30;1.10;;;19.90;99.90;;;;;;7373057;19;20984;-47
2022/09/15 05:04:16;;;;;;;11.97;1.30;;;19.80;99.90;;;;;;7375127;19;20953;-47
2022/09/15 05:06:46;;;;;;;2.67;1.20;;;19.90;99.90;;;;;;7371124;19;21116;-47
2022/09/15 05:09:15;;;;;;;4.27;1.80;;;19.80;99.90;;;;;;7375330;19;20471;-47
2022/09/15 05:11:45;;;;;;;1.80;1.17;;;19.80;99.90;;;;;;7378513;19;20380;-47
2022/09/15 05:14:15;;;;;;;2.37;1.83;;;19.90;99.90;;;;;;7381199;19;21207;-47
2022/09/15 05:16:44;;;;;;;2.57;2.20;;;19.90;99.90;;;;;;7372178;19;21053;-47
2022/09/15 05:19:18;;;;;;;4.13;1.60;;;19.90;99.90;;;;;;7381277;19;20381;-47
2022/09/15 05:21:48;;;;;;;1.50;1.40;;;19.90;99.90;;;;;;7384684;19;20755;-47
2022/09/15 05:24:17;;;;;;;2.80;1.30;;;19.90;99.90;;;;;;7382696;19;20371;-48
2022/09/15 05:26:47;;;;;;;3.83;2.20;;;19.90;99.90;;;;;;7384551;19;20368;-47
2022/09/15 05:29:16;;;;;;;3.33;1.33;;;20.00;99.90;;;;;;7382642;19;20918;-47
2022/09/15 05:31:46;;;;;;;2.00;1.13;;;19.90;99.90;;;;;;7381387;19;20464;-47
2022/09/15 05:34:18;;;;;;;1.20;0.90;;;20.00;99.90;;;;;;7383011;19;20902;-48
2022/09/15 05:36:47;;;;;;;2.20;1.40;;;19.90;99.90;;;;;;7382611;19;20375;-47
2022/09/15 05:39:17;;;;;;;5.17;1.27;;;19.80;99.90;;;;;;7386745;19;20416;-47
2022/09/15 05:41:46;;;;;;;1.30;1.00;;;19.80;99.90;;;;;;7388278;19;20398;-47
2022/09/15 05:44:16;;;;;;;2.03;1.37;;;19.80;99.90;;;;;;7383882;19;20368;-47
2022/09/15 05:46:45;;;;;;;2.20;1.53;;;19.90;99.90;;;;;;7384212;19;20440;-47
2022/09/15 05:49:18;;;;;;;1.93;1.10;;;20.00;99.90;;;;;;7381772;19;20439;-47
2022/09/15 05:51:49;;;;;;;1.50;1.10;;;20.00;99.90;;;;;;7382418;19;20371;-47
2022/09/15 05:54:19;;;;;;;2.60;1.10;;;20.10;99.90;;;;;;7382454;19;20875;-48
2022/09/15 05:56:50;;;;;;;1.00;0.90;;;20.10;99.90;;;;;;7387119;19;20511;-48
2022/09/15 05:59:20;;;;;;;1.83;1.27;;;20.10;99.90;;;;;;7378775;19;20410;-47
2022/09/15 06:01:50;;;;;;;1.53;0.97;;;20.10;99.90;;;;;;7381409;19;20416;-47
2022/09/15 06:04:22;;;;;;;1.20;0.90;;;20.10;99.90;;;;;;7382753;19;20380;-48
2022/09/15 06:06:51;;;;;;;0.90;0.70;;;20.20;99.90;;;;;;7384916;19;20383;-47
2022/09/15 06:09:21;;;;;;;3.67;0.80;;;20.20;99.90;;;;;;7240807;19;2789937;-48
2022/09/15 06:11:51;;;;;;;2.27;1.40;;;20.20;99.90;;;;;;7386983;19;20474;-47
2022/09/15 06:14:20;;;;;;;1.17;0.73;;;20.10;99.90;;;;;;7383918;19;20423;-47
2022/09/15 06:16:52;;;;;;;2.37;1.30;;;20.20;99.90;;;;;;7385772;19;20933;-47
2022/09/15 06:19:24;;;;;;;1.00;0.70;;;20.20;99.90;;;;;;7383570;19;20439;-47
2022/09/15 06:21:53;;;;;;;1.67;1.00;;;20.20;99.90;;;;;;7386987;19;20380;-48
2022/09/15 06:24:23;;;;;;;1.87;0.90;;;20.30;99.90;;;;;;7380283;19;20384;-47
2022/09/15 06:26:52;;;;;;;1.67;1.20;;;20.30;99.90;;;;;;7385487;19;20744;-47
2022/09/15 06:29:24;;;;;;;1.30;0.90;;;20.40;99.90;;;;;;7387480;19;20384;-48
2022/09/15 06:31:55;;;;;;;1.80;1.10;;;20.40;99.90;;;;;;7385282;19;20416;-47
2022/09/15 06:34:27;;;;;;;0.90;0.80;;;20.50;99.90;;;;;;7385290;19;20376;-48
2022/09/15 06:36:57;;;;;;;1.70;0.90;;;20.50;99.90;;;;;;7382721;19;20413;-47
2022/09/15 06:39:27;;;;;;;2.30;1.37;;;20.50;99.90;;;;;;7385766;19;20387;-48
2022/09/15 06:41:57;;;;;;;4.57;1.47;;;20.50;99.90;;;;;;7387706;19;20490;-48
2022/09/15 06:44:31;;;;;;;1.23;0.80;;;20.30;99.90;;;;;;7383389;19;20694;-47
2022/09/15 06:47:00;;;;;;;1.97;1.00;;;20.10;99.90;;;;;;7384346;19;20729;-48
2022/09/15 06:49:35;;;;;;;1.50;1.00;;;20.00;99.90;;;;;;7383509;19;21040;-48
2022/09/15 06:52:05;;;;;;;1.00;0.77;;;20.10;99.90;;;;;;7385655;19;20435;-48
2022/09/15 06:54:34;;;;;;;1.70;1.10;;;20.00;99.90;;;;;;7380680;19;20428;-48
2022/09/15 06:57:03;;;;;;;1.50;1.40;;;20.00;99.90;;;;;;7386084;19;20387;-48
2022/09/15 06:59:33;;;;;;;1.10;1.00;;;20.00;99.90;;;;;;7386608;19;20380;-48
2022/09/15 07:02:05;;;;;;;2.83;0.97;;;20.00;99.90;;;;;;7383892;19;20548;-48
2022/09/15 07:04:40;;;;;;;1.93;1.10;;;20.00;99.90;;;;;;7380071;19;20372;-47
2022/09/15 07:07:09;;;;;;;1.03;0.70;;;20.10;99.90;;;;;;7382723;19;20372;-47
2022/09/15 07:09:39;;;;;;;1.23;1.13;;;20.20;99.90;;;;;;7383313;19;20396;-47
2022/09/15 07:12:09;;;;;;;1.77;0.87;;;20.20;99.90;;;;;;7385016;19;20384;-48
2022/09/15 07:14:38;;;;;;;1.70;1.10;;;20.20;99.90;;;;;;7383891;19;20913;-48
2022/09/15 07:17:08;;;;;;;1.80;1.40;;;20.20;99.90;;;;;;7382778;19;21152;-48
2022/09/15 07:19:41;;;;;;;1.90;1.00;;;20.30;99.90;;;;;;7379957;19;20384;-48
2022/09/15 07:22:11;;;;;;;2.30;1.13;;;20.20;99.90;;;;;;7382296;19;20402;-48
2022/09/15 07:24:41;;;;;;;1.13;1.00;;;20.30;99.90;;;;;;7381263;19;20391;-48
2022/09/15 07:27:10;;;;;;;2.20;1.20;;;20.30;99.90;;;;;;7382719;19;20372;-48
2022/09/15 07:29:39;;;;;;;3.70;1.00;;;20.40;99.90;;;;;;7381649;19;20383;-47
2022/09/15 07:32:09;;;;;;;2.47;1.20;;;20.50;99.90;;;;;;7381308;19;20380;-47
2022/09/15 07:34:41;;;;;;;1.43;0.80;;;20.50;99.90;;;;;;7379728;19;20376;-47
2022/09/15 07:37:14;;;;;;;1.80;1.00;;;20.50;99.90;;;;;;7381402;19;20395;-47
2022/09/15 07:39:44;;;;;;;3.00;1.07;;;20.40;99.90;;;;;;7381785;19;20383;-48
2022/09/15 07:42:14;;;;;;;1.33;0.80;;;20.40;99.90;;;;;;7385272;19;20381;-47
2022/09/15 07:44:43;;;;;;;1.90;1.00;;;20.40;99.90;;;;;;7382396;19;20390;-47
2022/09/15 07:47:13;;;;;;;5.63;0.87;;;20.40;99.90;;;;;;7370976;19;20874;-48
2022/09/15 07:49:45;;;;;;;1.83;1.17;;;20.10;99.90;;;;;;7374338;19;20382;-47
2022/09/15 07:52:14;;;;;;;1.77;0.77;;;20.00;99.90;;;;;;7374207;19;20421;-47
2022/09/15 07:54:46;;;;;;;1.00;0.73;;;19.80;99.90;;;;;;7380941;19;20443;-47
2022/09/15 07:57:16;;;;;;;2.87;1.23;;;19.80;99.90;;;;;;7382431;19;20918;-48
2022/09/15 07:59:45;;;;;;;1.73;0.90;;;19.90;99.90;;;;;;7381729;19;20433;-48
2022/09/15 08:02:18;;;;;;;5.80;1.37;;;19.70;99.90;;;;;;7378957;19;20447;-47
2022/09/15 08:04:51;;;;;;;0.67;0.67;;;19.60;99.90;;;;;;7379057;19;20407;-48
2022/09/15 08:07:21;;;;;;;4.10;1.00;;;19.40;99.90;;;;;;7378333;19;20897;-47
2022/09/15 08:09:51;;;;;;;1.40;0.80;;;19.50;99.90;;;;;;7376852;19;20922;-48
2022/09/15 08:12:22;;;;;;;1.40;1.03;;;19.50;99.90;;;;;;7382134;19;20380;-48
2022/09/15 08:14:52;;;;;;;3.27;0.70;;;19.40;99.90;;;;;;7375121;19;20940;-48
2022/09/15 08:17:21;;;;;;;1.37;0.90;;;19.30;99.90;;;;;;7379431;19;20830;-47
2022/09/15 08:19:53;;;;;;;4.73;1.13;;;19.20;99.90;;;;;;7379577;19;20388;-47
2022/09/15 08:22:23;;;;;;;1.57;1.00;;;19.20;99.90;;;;;;7378167;19;20376;-47
2022/09/15 08:24:53;;;;;;;0.70;0.67;;;19.20;99.90;;;;;;7373079;19;20367;-47
2022/09/15 08:27:22;;;;;;;0.97;0.70;;;19.20;99.90;;;;;;7379756;19;20380;-47
2022/09/15 08:29:52;;;;;;;2.10;1.10;;;19.20;99.90;;;;;;7380031;19;20391;-47
2022/09/15 08:32:21;;;;;;;1.93;0.80;;;19.40;99.90;;;;;;7377799;19;20806;-48
2022/09/15 08:34:53;;;;;;;1.20;0.90;;;19.50;99.90;;;;;;7370325;19;20673;-48
2022/09/15 08:37:23;;;;;;;1.17;0.97;;;19.60;99.90;;;;;;7373667;19;20383;-47
2022/09/15 08:39:53;;;;;;;1.03;0.80;;;19.50;99.90;;;;;;7376588;19;20380;-47
2022/09/15 08:42:25;;;;;;;2.63;0.83;;;19.50;99.90;;;;;;7373732;19;20372;-48
2022/09/15 08:44:58;;;;;;;1.93;0.80;;;19.60;99.90;;;;;;7382657;19;20384;-48
2022/09/15 08:47:32;;;;;;;2.10;0.80;;;19.40;99.90;;;;;;7362204;19;20375;-47
2022/09/15 08:50:13;;;;;;;2.93;0.90;;;19.60;99.90;;;;;;7376745;19;20371;-48
2022/09/15 08:52:47;;;;;;;1.93;0.77;;;19.80;99.90;;;;;;7379178;19;20414;-48
2022/09/15 08:55:34;;;;;;;2.00;0.80;;;20.00;99.90;;;;;;7378585;19;20913;-48
2022/09/15 08:58:04;;;;;;;1.87;0.90;;;20.10;99.90;;;;;;7380074;19;20820;-48
2022/09/15 09:00:35;;;;;;;3.93;0.70;;;20.20;99.90;;;;;;7380219;19;20423;-48
2022/09/15 09:03:33;;;;;;;2.43;1.20;;;20.30;99.90;;;;;;7385554;19;20384;-48
2022/09/15 09:06:16;;;;;;;4.00;0.97;;;20.30;99.90;;;;;;7387510;19;20423;-48
2022/09/15 09:09:15;;;;;;;0.90;0.67;;;20.30;99.90;;;;;;7384577;19;20392;-48
2022/09/15 09:12:00;;;;;;;2.43;0.90;;;20.50;99.90;;;;;;7385306;19;20774;-47
2022/09/15 09:14:41;;;;;;;1.23;0.80;;;20.60;99.90;;;;;;7375421;19;20809;-47
2022/09/15 09:17:32;;;;;;;1.30;0.90;;;20.70;99.90;;;;;;7382910;19;20747;-47
2022/09/15 09:20:32;;;;;;;0.97;0.70;;;20.80;99.90;;;;;;7357758;19;20767;-47
2022/09/15 09:23:14;;;;;;;2.37;0.90;;;20.70;99.90;;;;;;7384706;19;20378;-47
2022/09/15 09:25:44;;;;;;;1.33;0.90;;;20.80;99.90;;;;;;7384195;19;20395;-47
2022/09/15 09:28:29;;;;;;;2.70;0.80;;;20.70;99.90;;;;;;7381333;19;20740;-47
2022/09/15 09:31:06;;;;;;;1.57;1.10;;;20.90;99.90;;;;;;7384954;19;20938;-47
2022/09/15 09:33:43;;;;;;;3.70;2.40;;;20.90;99.90;;;;;;7379991;19;20376;-47
2022/09/15 09:36:14;;;;;;;1.67;0.80;;;21.00;99.90;;;;;;7384810;19;20379;-47
2022/09/15 09:38:48;;;;;;;1.37;1.00;;;20.90;99.90;;;;;;7383826;19;20387;-46
2022/09/15 09:41:24;;;;;;;1.80;1.10;;;20.90;99.90;;;;;;7384814;19;20451;-47
2022/09/15 09:43:58;;;;;;;2.20;1.33;;;20.90;99.90;;;;;;7386331;19;20906;-47
2022/09/15 09:46:27;;;;;;;2.33;1.40;;;21.00;99.90;;;;;;7381735;19;20384;-47
2022/09/15 09:49:03;;;;;;;1.27;0.97;;;21.20;99.90;;;;;;7378800;19;20387;-47
2022/09/15 09:51:36;;;;;;;2.03;0.70;;;21.20;99.90;;;;;;7385190;19;20447;-48
2022/09/15 09:54:14;;;;;;;1.00;0.67;;;21.20;99.90;;;;;;7383252;19;20380;-48
2022/09/15 09:56:44;;;;;;;1.10;0.80;;;21.20;99.90;;;;;;7382444;19;20987;-48
2022/09/15 09:59:44;;;;;;;2.57;1.10;;;21.10;99.90;;;;;;7383320;19;20365;-48
2022/09/15 10:02:19;;;;;;;1.43;0.90;;;21.10;99.90;;;;;;7367836;19;20424;-47
2022/09/15 10:04:50;;;;;;;0.90;0.60;;;20.90;99.90;;;;;;7382612;19;20388;-48
2022/09/15 10:07:22;;;;;;;1.80;1.17;;;20.70;99.90;;;;;;7378795;19;20372;-51
2022/09/15 10:09:59;;;;;;;1.13;0.50;;;20.50;99.90;;;;;;7382430;19;20395;-47
2022/09/15 10:12:33;;;;;;;1.20;0.70;;;20.50;99.90;;;;;;7383040;19;21331;-48
2022/09/15 10:15:05;;;;;;;1.57;0.80;;;20.50;99.90;;;;;;7382769;19;20469;-47
2022/09/15 10:17:44;;;;;;;1.43;0.50;;;20.40;99.90;;;;;;7381789;19;20380;-49
2022/09/15 10:20:27;;;;;;;2.50;0.90;;;20.20;99.90;;;;;;7381508;19;20429;-48
2022/09/15 10:23:05;;;;;;;2.07;1.00;;;20.00;99.90;;;;;;7384536;19;20380;-47
2022/09/15 10:25:40;;;;;;;1.50;0.90;;;20.00;99.90;;;;;;7382002;19;20487;-48
2022/09/15 10:28:15;;;;;;;0.90;0.73;;;19.90;99.90;;;;;;7383241;19;20695;-48
2022/09/15 10:31:02;;;;;;;3.07;1.17;;;19.90;99.90;;;;;;7380509;19;20466;-48
2022/09/15 10:33:33;;;;;;;1.10;0.70;;;20.00;99.90;;;;;;7353266;19;20985;-48
2022/09/15 10:36:08;;;;;;;1.20;0.77;;;19.90;99.90;;;;;;7378269;19;20372;-48
2022/09/15 10:38:47;;;;;;;3.80;1.50;;;19.90;99.90;;;;;;7380960;19;20384;-48
2022/09/15 10:41:25;;;;;;;2.90;1.27;;;19.90;99.90;;;;;;7381229;19;20371;-48
2022/09/15 10:44:22;;;;;;;1.40;0.77;;;19.80;99.90;;;;;;7381020;19;20394;-48
2022/09/15 10:47:02;;;;;;;2.93;1.00;;;19.80;99.90;;;;;;7379386;19;20404;-48
2022/09/15 10:49:46;;;;;;;1.97;1.10;;;19.60;99.90;;;;;;7381133;19;20425;-47
2022/09/15 10:52:24;;;;;;;2.83;1.60;;;19.50;99.90;;;;;;7385333;19;20376;-47
2022/09/15 10:55:06;;;;;;;1.67;1.20;;;19.50;99.90;;;;;;7380400;19;20375;-47
2022/09/15 10:58:16;;;;;;;2.27;1.50;;;19.60;99.90;;;;;;7383136;19;20947;-47
2022/09/15 11:00:52;;;;;;;2.60;1.80;;;19.30;99.90;;;;;;7383456;19;21236;-47
2022/09/15 11:03:46;;;;;;;2.83;1.43;;;19.30;99.90;;;;;;7384133;19;20384;-47
2022/09/15 11:06:26;;;;;;;2.90;1.97;;;19.40;99.90;;;;;;7384445;19;20396;-47
2022/09/15 11:09:10;;;;;;;3.33;2.70;;;19.50;99.90;;;;;;7380734;19;20414;-47
2022/09/15 11:11:49;;;;;;;4.67;3.27;;;19.30;99.90;;;;;;7381862;19;20384;-47
2022/09/15 11:14:40;;;;;;;3.10;2.40;;;19.30;99.90;;;;;;7379937;19;20375;-47
2022/09/15 11:17:24;;;;;;;5.03;1.97;;;19.30;99.90;;;;;;7378619;19;20791;-47
2022/09/15 11:20:15;;;;;;;2.00;1.77;;;19.20;99.90;;;;;;7379969;19;20375;-48
2022/09/15 11:22:50;;;;;;;3.17;2.40;;;19.10;99.90;;;;;;7377608;19;20763;-48
2022/09/15 11:25:22;;;;;;;6.70;4.27;;;19.10;99.90;;;;;;7381161;19;20371;-48
2022/09/15 11:27:55;;;;;;;6.07;2.77;;;19.20;99.90;;;;;;7384325;19;20372;-49
2022/09/15 11:30:34;;;;;;;3.73;2.53;;;19.30;99.90;;;;;;7381668;19;20995;-48
2022/09/15 11:33:06;;;;;;;2.37;1.80;;;19.40;99.90;;;;;;7381721;19;21012;-48
2022/09/15 11:35:46;;;;;;;2.87;1.80;;;19.40;99.90;;;;;;7381392;19;21047;-48
2022/09/15 11:38:26;;;;;;;3.10;1.73;;;19.40;99.90;;;;;;7381207;19;20364;-48
2022/09/15 11:41:00;;;;;;;3.47;2.43;;;19.20;99.90;;;;;;7380400;19;20380;-47
2022/09/15 11:43:37;;;;;;;2.37;2.17;;;19.20;99.90;;;;;;7378672;19;20384;-47
2022/09/15 11:46:16;;;;;;;3.60;2.13;;;19.20;99.90;;;;;;7382396;19;20901;-47
2022/09/15 11:48:56;;;;;;;3.50;2.50;;;19.10;99.90;;;;;;7381382;19;20470;-47
2022/09/15 11:51:30;;;;;;;3.00;2.40;;;19.10;99.90;;;;;;7382342;19;20380;-48
2022/09/15 11:54:06;;;;;;;3.80;3.20;;;18.80;99.90;;;;;;7377889;19;20733;-47
2022/09/15 11:56:41;;;;;;;3.07;2.80;;;18.60;99.90;;;;;;7374304;19;20392;-48
2022/09/15 11:59:21;;;;;;;4.80;2.50;;;18.70;99.90;;;;;;7379196;19;20375;-48
2022/09/15 12:01:59;;;;;;;2.73;2.20;;;18.90;99.90;;;;;;7376306;19;20419;-47
2022/09/15 12:04:34;;;;;;;6.80;2.70;;;19.00;99.90;;;;;;7377435;19;20492;-47
2022/09/15 12:07:09;;;;;;;3.17;2.87;;;18.90;99.90;;;;;;7378012;19;20367;-47
2022/09/15 12:09:41;;;;;;;4.57;1.90;;;18.90;99.90;;;;;;7376186;19;20376;-47
2022/09/15 12:12:18;;;;;;;4.10;2.50;;;18.90;99.90;;;;;;7379489;19;20392;-47
2022/09/15 12:14:49;;;;;;;3.03;2.70;;;19.00;99.90;;;;;;7378062;19;20383;-47
2022/09/15 12:17:31;;;;;;;2.60;2.07;;;19.00;99.90;;;;;;7374253;19;20399;-47
2022/09/15 12:20:05;;;;;;;6.07;3.50;;;19.10;99.90;;;;;;7374451;19;20376;-47
2022/09/15 12:22:42;;;;;;;4.30;1.97;;;19.10;99.90;;;;;;7381770;19;20432;-47
2022/09/15 12:25:18;;;;;;;5.27;2.10;;;19.20;99.90;;;;;;7379789;19;20415;-47
2022/09/15 12:28:28;;;;;;;5.63;2.40;;;19.10;99.90;;;;;;7375569;19;20390;-47
2022/09/15 12:31:14;;;;;;;3.40;2.23;;;19.10;99.90;;;;;;7382554;19;20391;-47
2022/09/15 12:33:56;;;;;;;2.67;2.10;;;19.20;99.90;;;;;;7379387;19;20747;-48
2022/09/15 12:36:44;;;;;;;5.83;2.77;;;19.30;99.90;;;;;;7388226;19;20472;-48
2022/09/15 12:39:39;;;;;;;2.13;1.93;;;19.70;99.90;;;;;;7388270;19;20673;-48
2022/09/15 12:42:17;;;;;;;3.33;1.90;;;20.00;99.90;;;;;;7388555;19;20479;-48
2022/09/15 12:44:53;;;;;;;4.07;2.67;;;20.00;99.90;;;;;;7383149;19;21822;-48
2022/09/15 12:47:28;;;;;;;4.00;2.27;;;20.10;99.90;;;;;;7388133;19;20662;-48
2022/09/15 12:50:08;;;;;;;4.83;2.40;;;20.20;99.90;;;;;;7387076;19;20401;-48
2022/09/15 12:52:48;;;;;;;3.60;2.47;;;20.30;99.90;;;;;;7389075;19;20386;-47
2022/09/15 12:55:22;;;;;;;3.67;2.30;;;20.20;99.90;;;;;;7387474;19;20774;-48
2022/09/15 12:57:57;;;;;;;3.40;2.20;;;20.30;99.90;;;;;;7382161;19;20383;-48
2022/09/15 13:00:33;;;;;;;6.37;2.47;;;20.50;99.90;;;;;;7382124;19;20368;-49
2022/09/15 13:03:03;;;;;;;2.83;2.43;;;20.70;99.90;;;;;;7383992;19;20395;-48
2022/09/15 13:06:18;;;;;;;4.87;2.90;;;20.70;99.90;;;;;;7381536;19;20511;-48
2022/09/15 13:09:17;;;;;;;5.00;2.97;;;20.80;95.00;;;;;;7384820;19;21030;-48
2022/09/15 13:11:50;;;;;;;5.83;2.57;;;20.70;96.60;;;;;;7378247;19;20485;-48
2022/09/15 13:14:28;;;;;;;2.60;2.10;;;20.80;96.30;;;;;;7378389;19;20451;-48
2022/09/15 13:17:01;;;;;;;3.40;2.40;;;21.10;96.10;;;;;;7355042;19;20945;-47
2022/09/15 13:19:43;;;;;;;3.23;2.40;;;21.10;91.50;;;;;;7373148;19;20372;-48
2022/09/15 13:22:22;;;;;;;5.57;3.37;;;21.10;90.90;;;;;;7380290;19;20388;-47